Time;durP1;ratioP1;P1;durP2;ratioP2;P2;SDS_P1;SDS_P2;PMS_P1;PMS_P2;Temp;Humidity;BMP_temperature;BMP_pressure;BME280_temperature;BME280_humidity;BME280_pressure;Samples;Min_cycle;Max_cycle;Signal;HPM_P1;HPM_P2
2023/10/22 00:00:52;;;;;;;0.73;0.30;;;17.00;66.60;18.50;99381.00;;;;5034668;28;20697;-77
2023/10/22 00:03:19;;;;;;;0.82;0.47;;;17.00;66.60;18.50;99375.00;;;;5040201;28;20661;-78
2023/10/22 00:05:46;;;;;;;4.20;0.47;;;17.00;66.80;18.50;99371.00;;;;5048208;28;20201;-77
2023/10/22 00:08:13;;;;;;;2.55;0.40;;;17.00;66.90;18.50;99385.00;;;;5040474;28;20214;-77
2023/10/22 00:10:42;;;;;;;0.70;0.40;;;17.00;66.80;18.50;99376.00;;;;5048140;28;20211;-77
2023/10/22 00:13:09;;;;;;;0.77;0.38;;;17.00;67.00;18.50;99377.00;;;;5046974;28;20216;-77
2023/10/22 00:15:36;;;;;;;1.20;0.20;;;17.00;66.90;18.50;99385.00;;;;5033187;28;20584;-77
2023/10/22 00:18:03;;;;;;;0.77;0.20;;;17.00;67.00;18.50;99388.00;;;;5042838;28;20215;-77
2023/10/22 00:20:31;;;;;;;1.27;0.40;;;17.00;67.10;18.50;99384.00;;;;5043304;28;20573;-76
2023/10/22 00:22:58;;;;;;;2.58;0.30;;;17.00;67.10;18.50;99392.00;;;;5043643;28;20208;-77
2023/10/22 00:25:25;;;;;;;0.73;0.30;;;17.00;67.00;18.50;99386.00;;;;5041611;28;20203;-77
2023/10/22 00:27:53;;;;;;;0.70;0.30;;;17.00;67.10;18.50;99389.00;;;;5042185;28;20211;-77
2023/10/22 00:30:20;;;;;;;1.42;0.60;;;17.00;67.20;18.50;99386.00;;;;5035881;28;20207;-77
2023/10/22 00:32:47;;;;;;;4.22;0.55;;;17.00;67.20;18.50;99383.00;;;;5046269;28;20223;-77
2023/10/22 00:35:14;;;;;;;1.48;0.40;;;17.00;67.20;18.50;99395.00;;;;5038177;28;20200;-76
2023/10/22 00:37:41;;;;;;;1.02;0.50;;;17.00;67.90;18.50;99395.00;;;;5035129;28;20198;-77
2023/10/22 00:40:09;;;;;;;2.47;0.43;;;17.00;67.20;18.50;99389.00;;;;5047262;28;20196;-76
2023/10/22 00:42:37;;;;;;;3.67;0.63;;;17.00;67.30;18.50;99403.00;;;;5046877;28;20285;-76
2023/10/22 00:45:07;;;;;;;0.75;0.55;;;17.00;67.20;18.50;99400.00;;;;5048815;28;20727;-77
2023/10/22 00:47:35;;;;;;;0.93;0.40;;;17.00;67.20;18.50;99413.00;;;;5038094;28;20199;-77
2023/10/22 00:50:03;;;;;;;1.63;0.50;;;17.00;67.30;18.50;99418.00;;;;5040897;28;20215;-77
2023/10/22 00:52:31;;;;;;;3.22;0.63;;;17.00;67.30;18.50;99408.00;;;;5038406;28;20279;-77
2023/10/22 00:55:00;;;;;;;1.77;0.50;;;17.00;67.40;18.50;99418.00;;;;5031847;28;20199;-76
2023/10/22 00:57:29;;;;;;;1.70;0.60;;;17.00;67.40;18.50;99427.00;;;;5035638;28;20192;-77
2023/10/22 00:59:56;;;;;;;0.75;0.40;;;17.00;67.30;18.50;99424.00;;;;5040362;28;20211;-77
2023/10/22 01:02:25;;;;;;;2.75;0.57;;;17.10;67.20;18.50;99431.00;;;;5043564;28;20203;-77
2023/10/22 01:04:52;;;;;;;1.30;0.50;;;17.00;67.20;18.50;99423.00;;;;5040232;28;20210;-76
2023/10/22 01:07:20;;;;;;;2.80;0.80;;;17.10;67.30;18.50;99426.00;;;;5042020;28;20196;-77
2023/10/22 01:09:47;;;;;;;0.70;0.63;;;17.10;67.30;18.60;99426.00;;;;5041750;28;20688;-77
2023/10/22 01:12:14;;;;;;;1.80;0.50;;;17.10;67.20;18.60;99426.00;;;;5048117;28;20223;-77
2023/10/22 01:14:41;;;;;;;1.13;0.43;;;17.10;67.30;18.60;99417.00;;;;5050208;28;20226;-76
2023/10/22 01:17:08;;;;;;;1.52;0.47;;;17.10;67.20;18.60;99414.00;;;;5038323;28;20685;-76
2023/10/22 01:19:37;;;;;;;1.83;0.63;;;17.10;67.20;18.60;99432.00;;;;5040884;28;20202;-76
2023/10/22 01:22:04;;;;;;;0.73;0.45;;;17.10;67.10;18.60;99437.00;;;;5041512;28;20218;-77
2023/10/22 01:24:34;;;;;;;1.95;0.40;;;17.10;67.10;18.60;99426.00;;;;5037872;28;20204;-76
2023/10/22 01:27:01;;;;;;;1.38;0.40;;;17.10;67.10;18.60;99445.00;;;;5043631;28;20196;-76
2023/10/22 01:29:28;;;;;;;3.00;0.43;;;17.20;67.10;18.60;99431.00;;;;5040002;28;20214;-77
2023/10/22 01:31:55;;;;;;;2.20;0.50;;;17.10;67.10;18.60;99433.00;;;;5038681;28;20224;-76
2023/10/22 01:34:22;;;;;;;3.17;0.63;;;17.10;67.00;18.60;99446.00;;;;5035843;28;20216;-76
2023/10/22 01:36:50;;;;;;;1.50;0.40;;;17.20;67.10;18.60;99439.00;;;;5043533;28;20215;-76
2023/10/22 01:39:17;;;;;;;2.83;0.57;;;17.10;67.10;18.60;99442.00;;;;5037221;28;20565;-77
2023/10/22 01:41:45;;;;;;;1.15;0.40;;;17.20;67.10;18.50;99441.00;;;;5033977;28;20203;-76
2023/10/22 01:44:12;;;;;;;1.20;0.30;;;17.10;67.10;18.60;99453.00;;;;5040191;28;20216;-76
2023/10/22 01:46:39;;;;;;;0.93;0.30;;;17.10;67.20;18.60;99464.00;;;;5039059;28;20216;-76
2023/10/22 01:49:06;;;;;;;0.82;0.50;;;17.10;67.20;18.60;99458.00;;;;5039796;28;20646;-76
2023/10/22 01:51:33;;;;;;;1.13;0.38;;;17.10;67.20;18.60;99462.00;;;;5044179;28;20581;-76
2023/10/22 01:54:01;;;;;;;1.58;0.38;;;17.10;67.20;18.60;99448.00;;;;5041651;28;20214;-76
2023/10/22 01:56:28;;;;;;;1.63;0.30;;;17.10;67.20;18.60;99478.00;;;;5044686;28;20207;-76
2023/10/22 01:58:56;;;;;;;0.40;0.28;;;17.10;67.20;18.50;99474.00;;;;5043477;28;21024;-75
2023/10/22 02:01:25;;;;;;;1.50;0.45;;;17.00;67.30;18.50;99474.00;;;;5043407;28;20203;-76
2023/10/22 02:03:52;;;;;;;2.28;0.70;;;17.10;67.30;18.50;99472.00;;;;5041002;28;20679;-76
2023/10/22 02:06:19;;;;;;;0.82;0.40;;;17.10;67.40;18.50;99472.00;;;;5046113;28;20199;-76
2023/10/22 02:08:47;;;;;;;1.92;0.40;;;17.10;67.50;18.50;99496.00;;;;5045676;28;20196;-76
2023/10/22 02:11:14;;;;;;;1.17;0.60;;;17.00;67.50;18.50;99487.00;;;;5044662;28;20578;-76
2023/10/22 02:13:41;;;;;;;2.58;0.50;;;17.00;67.60;18.40;99492.00;;;;5043026;28;20311;-76
2023/10/22 02:16:09;;;;;;;1.25;0.55;;;17.00;67.70;18.40;99491.00;;;;5047436;28;20199;-77
2023/10/22 02:18:36;;;;;;;0.60;0.30;;;16.90;67.70;18.40;99506.00;;;;5046087;28;20235;-76
2023/10/22 02:21:04;;;;;;;1.65;0.68;;;16.90;67.80;18.40;99510.00;;;;5043550;28;20576;-76
2023/10/22 02:23:31;;;;;;;0.63;0.30;;;16.90;67.90;18.30;99516.00;;;;5041752;28;20282;-76
2023/10/22 02:25:58;;;;;;;1.20;0.50;;;16.90;68.00;18.30;99516.00;;;;5039699;28;20195;-76
2023/10/22 02:28:26;;;;;;;0.90;0.50;;;16.80;68.00;18.30;99520.00;;;;5046159;28;20200;-76
2023/10/22 02:30:53;;;;;;;2.17;0.60;;;16.80;68.20;18.20;99534.00;;;;5039993;28;20204;-77
2023/10/22 02:33:22;;;;;;;0.60;0.30;;;16.80;68.20;18.20;99534.00;;;;5040022;28;20220;-77
2023/10/22 02:35:48;;;;;;;0.30;0.28;;;16.80;68.30;18.20;99543.00;;;;5046644;28;20210;-77
2023/10/22 02:38:18;;;;;;;0.38;0.22;;;16.80;68.40;18.20;99540.00;;;;5047428;28;20206;-77
2023/10/22 02:40:48;;;;;;;0.88;0.20;;;16.70;68.40;18.20;99549.00;;;;5047280;28;20188;-77
2023/10/22 02:43:16;;;;;;;0.40;0.20;;;16.70;68.50;18.20;99553.00;;;;5041334;28;20196;-77
2023/10/22 02:45:50;;;;;;;0.40;0.30;;;16.70;68.60;18.10;99539.00;;;;5045930;28;20219;-77
2023/10/22 02:48:17;;;;;;;1.08;0.52;;;16.70;68.80;18.10;99562.00;;;;5037803;28;20690;-77
2023/10/22 02:50:45;;;;;;;0.50;0.30;;;16.70;68.70;18.10;99569.00;;;;5045452;28;20601;-77
2023/10/22 02:53:13;;;;;;;0.47;0.17;;;16.70;68.90;18.10;99573.00;;;;5045846;28;20274;-77
2023/10/22 02:55:40;;;;;;;1.00;0.32;;;16.70;68.80;18.10;99587.00;;;;5042405;28;20676;-77
2023/10/22 02:58:07;;;;;;;0.73;0.30;;;16.70;68.90;18.10;99590.00;;;;5048813;28;20199;-77
2023/10/22 03:00:35;;;;;;;0.40;0.20;;;16.70;69.00;18.10;99597.00;;;;5050862;28;20561;-77
2023/10/22 03:03:02;;;;;;;0.30;0.20;;;16.70;69.20;18.10;99612.00;;;;5037932;28;20814;-76
2023/10/22 03:05:32;;;;;;;0.30;0.20;;;16.60;69.00;18.10;99613.00;;;;5038420;28;20200;-77
2023/10/22 03:08:01;;;;;;;0.15;0.10;;;16.60;69.10;18.10;99622.00;;;;5049749;28;20245;-77
2023/10/22 03:10:28;;;;;;;0.30;0.20;;;16.60;69.40;18.10;99621.00;;;;5046476;28;20200;-77
2023/10/22 03:12:57;;;;;;;0.35;0.25;;;16.60;69.40;18.10;99635.00;;;;5042130;28;20561;-78
2023/10/22 03:15:24;;;;;;;0.22;0.10;;;16.60;69.40;18.10;99647.00;;;;5048830;28;20278;-78
2023/10/22 03:17:56;;;;;;;0.15;0.15;;;16.60;69.40;18.00;99640.00;;;;5041247;28;20231;-77
2023/10/22 03:20:23;;;;;;;0.35;0.20;;;16.60;69.40;18.00;99656.00;;;;5050272;28;20594;-77
2023/10/22 03:22:51;;;;;;;0.32;0.10;;;16.50;70.10;18.00;99659.00;;;;5047533;28;20207;-78
2023/10/22 03:25:21;;;;;;;0.22;0.22;;;16.50;70.10;18.00;99672.00;;;;5047125;28;20711;-78
2023/10/22 03:27:48;;;;;;;0.88;0.40;;;16.50;69.40;18.00;99685.00;;;;5044829;28;20555;-78
2023/10/22 03:30:15;;;;;;;1.45;0.50;;;16.50;69.30;18.00;99692.00;;;;5047809;28;20207;-78
2023/10/22 03:32:42;;;;;;;0.93;0.22;;;16.50;69.40;18.00;99712.00;;;;5042142;28;20226;-77
2023/10/22 03:35:09;;;;;;;0.77;0.38;;;16.50;69.20;17.90;99710.00;;;;5042989;28;20224;-77
2023/10/22 03:37:36;;;;;;;0.60;0.43;;;16.50;69.20;17.90;99713.00;;;;5042103;28;20196;-77
2023/10/22 03:40:06;;;;;;;0.80;0.40;;;16.50;69.20;17.90;99725.00;;;;5047476;28;20215;-78
2023/10/22 03:42:35;;;;;;;0.68;0.40;;;16.50;69.30;17.90;99730.00;;;;5048140;28;21002;-77
2023/10/22 03:45:02;;;;;;;1.58;0.50;;;16.40;69.20;17.90;99735.00;;;;5041681;28;20701;-78
2023/10/22 03:47:29;;;;;;;1.33;0.45;;;16.40;69.20;17.90;99750.00;;;;5049174;28;20195;-77
2023/10/22 03:49:56;;;;;;;1.38;0.70;;;16.40;69.20;17.90;99754.00;;;;5040953;28;20555;-78
2023/10/22 03:52:23;;;;;;;1.73;1.13;;;16.40;69.20;17.90;99763.00;;;;5034620;28;20211;-77
2023/10/22 03:54:50;;;;;;;1.10;0.85;;;16.40;69.40;17.90;99761.00;;;;5033777;28;20196;-78
2023/10/22 03:57:17;;;;;;;1.02;0.73;;;16.30;69.20;17.90;99768.00;;;;5042593;28;20569;-77
2023/10/22 03:59:45;;;;;;;3.28;1.33;;;16.30;69.30;17.80;99784.00;;;;5047466;28;20200;-77
2023/10/22 04:02:12;;;;;;;1.90;0.75;;;16.30;69.40;17.90;99790.00;;;;5049636;28;20670;-77
2023/10/22 04:04:39;;;;;;;2.10;1.55;;;16.30;69.30;17.90;99797.00;;;;5043786;28;20192;-77
2023/10/22 04:07:06;;;;;;;2.80;1.30;;;16.30;69.30;17.90;99808.00;;;;5048775;28;20730;-78
2023/10/22 04:09:33;;;;;;;1.95;1.20;;;16.30;69.30;17.80;99800.00;;;;5038109;28;20684;-77
2023/10/22 04:12:00;;;;;;;4.13;1.20;;;16.30;69.30;17.80;99820.00;;;;5044518;28;20204;-78
2023/10/22 04:14:27;;;;;;;2.13;1.40;;;16.30;69.40;17.80;99823.00;;;;5038779;28;21077;-77
2023/10/22 04:16:55;;;;;;;2.67;1.33;;;16.30;69.40;17.80;99826.00;;;;5042740;28;20570;-77
2023/10/22 04:19:22;;;;;;;2.78;1.80;;;16.30;69.40;17.80;99835.00;;;;5046302;28;20191;-78
2023/10/22 04:21:49;;;;;;;2.90;1.20;;;16.30;69.40;17.80;99838.00;;;;5047035;28;20191;-77
2023/10/22 04:24:16;;;;;;;3.33;1.40;;;16.30;69.40;17.80;99839.00;;;;5041419;28;20196;-77
2023/10/22 04:26:43;;;;;;;2.83;1.60;;;16.30;69.30;17.80;99850.00;;;;5041447;28;20191;-78
2023/10/22 04:29:10;;;;;;;2.35;1.17;;;16.30;69.40;17.80;99858.00;;;;5043560;28;20200;-77
2023/10/22 04:31:37;;;;;;;1.98;1.20;;;16.30;69.40;17.80;99861.00;;;;5030999;28;20219;-77
2023/10/22 04:34:06;;;;;;;1.95;1.23;;;16.30;69.40;17.80;99871.00;;;;5034401;28;21117;-77
2023/10/22 04:36:33;;;;;;;2.75;1.20;;;16.30;70.10;17.80;99861.00;;;;5047034;28;20211;-77
2023/10/22 04:39:00;;;;;;;2.17;1.20;;;16.30;69.40;17.80;99874.00;;;;5041094;28;20200;-77
2023/10/22 04:41:28;;;;;;;3.92;1.50;;;16.30;69.40;17.90;99877.00;;;;5046563;28;20401;-77
2023/10/22 04:43:55;;;;;;;2.42;1.33;;;16.30;69.40;17.90;99890.00;;;;5040561;28;21023;-77
2023/10/22 04:46:22;;;;;;;2.15;1.45;;;16.30;69.40;17.90;99891.00;;;;5038116;28;20290;-78
2023/10/22 04:48:49;;;;;;;4.05;1.55;;;16.30;69.40;17.90;99896.00;;;;5043471;28;20192;-77
2023/10/22 04:51:18;;;;;;;8.30;2.22;;;16.30;69.40;17.80;99896.00;;;;5046234;28;20199;-77
2023/10/22 04:53:44;;;;;;;2.00;1.13;;;16.30;69.30;17.90;99906.00;;;;5036904;28;20219;-78
2023/10/22 04:56:11;;;;;;;4.78;1.10;;;16.30;69.30;17.90;99900.00;;;;5042834;28;20188;-77
2023/10/22 04:58:38;;;;;;;2.47;1.23;;;16.30;69.30;17.90;99909.00;;;;5042930;28;20199;-77
2023/10/22 05:01:05;;;;;;;2.47;1.42;;;16.30;69.40;17.90;99914.00;;;;5039122;28;20581;-78
2023/10/22 05:03:32;;;;;;;1.45;1.13;;;16.30;69.40;17.90;99910.00;;;;5038722;28;20203;-78
2023/10/22 05:06:06;;;;;;;1.98;1.20;;;16.30;69.40;17.90;99919.00;;;;5043931;28;20193;-77
2023/10/22 05:08:36;;;;;;;1.75;1.23;;;16.30;69.40;17.90;99925.00;;;;5044245;28;20200;-77
2023/10/22 05:11:05;;;;;;;2.03;1.27;;;16.30;69.30;17.90;99932.00;;;;5042471;28;20188;-77
2023/10/22 05:13:33;;;;;;;2.63;1.40;;;16.30;69.30;17.90;99942.00;;;;5042876;28;20227;-77
2023/10/22 05:16:00;;;;;;;2.00;1.17;;;16.30;69.30;17.90;99947.00;;;;5039866;28;20196;-77
2023/10/22 05:18:27;;;;;;;4.75;1.27;;;16.30;69.30;17.90;99955.00;;;;5037962;28;20224;-77
2023/10/22 05:21:00;;;;;;;4.28;1.40;;;16.30;69.30;17.90;99964.00;;;;5045955;28;20200;-77
2023/10/22 05:23:27;;;;;;;3.10;1.25;;;16.30;69.30;17.90;99963.00;;;;5042358;28;20200;-78
2023/10/22 05:26:08;;;;;;;2.50;1.58;;;16.30;69.30;17.80;99970.00;;;;5041297;28;20612;-77
2023/10/22 05:28:36;;;;;;;2.33;1.42;;;16.30;69.50;17.90;99976.00;;;;5040134;28;20626;-77
2023/10/22 05:31:11;;;;;;;2.13;1.23;;;16.30;69.30;17.90;99977.00;;;;5040514;28;20192;-78
2023/10/22 05:33:38;;;;;;;1.73;1.50;;;16.30;69.40;17.90;99980.00;;;;5034388;28;20238;-77
2023/10/22 05:36:13;;;;;;;1.58;1.23;;;16.30;69.40;17.90;99980.00;;;;5046731;28;20207;-77
2023/10/22 05:38:40;;;;;;;1.73;1.40;;;16.30;69.40;17.90;99992.00;;;;5046012;28;20203;-78
2023/10/22 05:41:08;;;;;;;1.65;1.38;;;16.30;69.30;17.90;100006.00;;;;5047077;28;20199;-77
2023/10/22 05:43:37;;;;;;;2.47;1.27;;;16.30;69.30;17.90;100001.00;;;;5042985;28;20202;-78
2023/10/22 05:46:03;;;;;;;1.85;1.67;;;16.30;69.30;17.90;100009.00;;;;5048448;28;20215;-77
2023/10/22 05:48:30;;;;;;;2.08;1.38;;;16.30;69.30;17.90;100021.00;;;;5047007;28;20196;-77
2023/10/22 05:50:58;;;;;;;2.35;1.30;;;16.30;69.20;17.90;100029.00;;;;5047494;28;20572;-77
2023/10/22 05:53:25;;;;;;;1.40;1.13;;;16.30;69.20;17.90;100025.00;;;;5048691;28;20228;-78
2023/10/22 05:55:59;;;;;;;3.38;1.40;;;16.30;69.20;17.80;100030.00;;;;5037773;28;20258;-77
2023/10/22 05:58:28;;;;;;;2.50;1.05;;;16.20;69.10;17.80;100027.00;;;;5045703;28;20199;-77
2023/10/22 06:00:56;;;;;;;2.35;1.20;;;16.20;69.00;17.80;100027.00;;;;5044641;28;20206;-77
2023/10/22 06:03:23;;;;;;;2.00;1.10;;;16.20;69.00;17.80;100035.00;;;;5042148;28;20200;-78
2023/10/22 06:05:50;;;;;;;1.63;1.40;;;16.20;69.00;17.80;100037.00;;;;5041897;28;20208;-77
2023/10/22 06:08:17;;;;;;;3.90;1.50;;;16.20;69.10;17.80;100042.00;;;;5042811;28;20214;-78
2023/10/22 06:10:46;;;;;;;1.65;1.13;;;16.10;69.10;17.80;100050.00;;;;5044837;28;20188;-78
2023/10/22 06:13:13;;;;;;;2.65;1.60;;;16.20;69.20;17.80;100051.00;;;;5047423;28;20222;-76
2023/10/22 06:15:45;;;;;;;3.10;1.45;;;16.10;69.10;17.70;100061.00;;;;5048429;28;20188;-78
2023/10/22 06:18:13;;;;;;;2.53;1.27;;;16.10;69.00;17.80;100063.00;;;;5049408;28;21039;-77
2023/10/22 06:20:40;;;;;;;2.00;1.40;;;16.10;69.10;17.80;100070.00;;;;5048226;28;20581;-77
2023/10/22 06:23:08;;;;;;;2.17;1.38;;;16.10;69.20;17.70;100078.00;;;;5048648;28;20203;-77
2023/10/22 06:25:35;;;;;;;2.22;1.30;;;16.10;69.10;17.70;100082.00;;;;5043537;28;20208;-78
2023/10/22 06:28:03;;;;;;;1.88;1.27;;;16.10;69.10;17.70;100090.00;;;;5043431;28;20192;-77
2023/10/22 06:30:30;;;;;;;1.60;1.50;;;16.10;69.20;17.70;100092.00;;;;5045548;28;20215;-78
2023/10/22 06:32:59;;;;;;;2.08;1.63;;;16.10;69.20;17.70;100090.00;;;;5048670;28;20192;-77
2023/10/22 06:35:30;;;;;;;5.85;2.20;;;16.10;69.30;17.70;100104.00;;;;5042180;28;20203;-77
2023/10/22 06:37:57;;;;;;;3.28;2.28;;;16.10;69.30;17.80;100101.00;;;;5043852;28;20216;-78
2023/10/22 06:40:25;;;;;;;1.90;1.75;;;16.10;69.30;17.80;100108.00;;;;5046839;28;20191;-78
2023/10/22 06:42:53;;;;;;;2.55;1.73;;;16.10;69.40;17.80;100108.00;;;;5034069;28;20204;-78
2023/10/22 06:45:20;;;;;;;2.58;2.35;;;16.10;69.50;17.80;100121.00;;;;5048412;28;20223;-77
2023/10/22 06:47:47;;;;;;;3.53;2.53;;;16.10;69.50;17.80;100125.00;;;;5042611;28;20196;-77
2023/10/22 06:50:16;;;;;;;3.13;2.80;;;16.10;69.40;17.80;100129.00;;;;5047396;28;20200;-77
2023/10/22 06:52:43;;;;;;;4.68;3.22;;;16.10;69.40;17.80;100137.00;;;;5050732;28;20204;-77
2023/10/22 06:55:11;;;;;;;3.72;3.33;;;16.10;69.40;17.80;100140.00;;;;5042583;28;20228;-78
2023/10/22 06:57:39;;;;;;;3.13;2.65;;;16.10;69.40;17.80;100149.00;;;;5040821;28;20191;-77
2023/10/22 07:00:09;;;;;;;3.67;2.92;;;16.10;69.40;17.80;100145.00;;;;5040277;28;20215;-77
2023/10/22 07:02:37;;;;;;;4.05;3.25;;;16.20;69.50;17.80;100152.00;;;;5041725;28;20196;-77
2023/10/22 07:05:07;;;;;;;3.13;2.65;;;16.20;69.40;17.80;100151.00;;;;5039415;28;20199;-77
2023/10/22 07:07:41;;;;;;;3.72;2.80;;;16.10;69.80;17.80;100158.00;;;;5037321;28;20881;-77
2023/10/22 07:10:10;;;;;;;6.97;2.72;;;16.10;69.30;17.80;100158.00;;;;5045675;28;20744;-77
2023/10/22 07:12:37;;;;;;;5.57;3.05;;;16.10;69.30;17.80;100173.00;;;;5041408;28;20196;-77
2023/10/22 07:15:06;;;;;;;3.80;2.60;;;16.20;69.40;17.80;100170.00;;;;5039895;28;20234;-77
2023/10/22 07:17:33;;;;;;;3.58;2.13;;;16.20;69.50;17.90;100183.00;;;;5039586;28;20220;-77
2023/10/22 07:19:59;;;;;;;3.70;2.40;;;16.20;69.60;17.90;100184.00;;;;5032825;28;20230;-77
2023/10/22 07:22:26;;;;;;;4.00;2.38;;;16.20;69.60;17.90;100185.00;;;;5039532;28;20572;-77
2023/10/22 07:24:55;;;;;;;3.50;2.03;;;16.20;69.50;17.90;100196.00;;;;5036720;28;20694;-77
2023/10/22 07:27:22;;;;;;;3.33;2.22;;;16.30;69.60;18.00;100197.00;;;;5042915;28;20196;-77
2023/10/22 07:29:49;;;;;;;2.85;2.15;;;16.30;69.50;17.90;100206.00;;;;5042390;28;20223;-77
2023/10/22 07:32:16;;;;;;;3.60;2.58;;;16.30;69.40;18.00;100214.00;;;;5046545;28;20229;-78
2023/10/22 07:34:43;;;;;;;3.17;2.00;;;16.30;69.30;18.00;100217.00;;;;5043390;28;20250;-76
2023/10/22 07:37:11;;;;;;;2.33;1.77;;;16.30;69.30;18.00;100223.00;;;;5041784;28;20200;-77
2023/10/22 07:39:38;;;;;;;3.95;2.08;;;16.30;69.20;18.00;100224.00;;;;5047803;28;20184;-76
2023/10/22 07:42:07;;;;;;;4.32;2.10;;;16.30;69.20;17.90;100226.00;;;;5042309;28;20579;-76
2023/10/22 07:44:34;;;;;;;4.05;2.03;;;16.30;69.00;18.00;100220.00;;;;5035034;28;20554;-77
2023/10/22 07:47:01;;;;;;;3.05;1.90;;;16.30;68.90;18.00;100229.00;;;;5041472;28;20189;-77
2023/10/22 07:49:28;;;;;;;2.45;1.75;;;16.30;68.90;18.00;100236.00;;;;5044247;28;20203;-76
2023/10/22 07:51:55;;;;;;;3.50;1.98;;;16.30;69.00;18.00;100230.00;;;;5039274;28;22123;-76
2023/10/22 07:54:22;;;;;;;3.28;1.92;;;16.30;69.00;18.00;100237.00;;;;5037003;28;20224;-76
2023/10/22 07:56:50;;;;;;;2.58;2.05;;;16.30;69.10;18.10;100247.00;;;;5038175;28;21032;-75
2023/10/22 07:59:18;;;;;;;3.67;2.10;;;16.30;69.20;18.10;100249.00;;;;5038759;28;20559;-76
2023/10/22 08:01:45;;;;;;;4.97;1.88;;;16.40;69.30;18.10;100242.00;;;;5041484;28;20204;-76
2023/10/22 08:04:12;;;;;;;3.42;1.85;;;16.40;69.30;18.10;100251.00;;;;5034345;28;20576;-76
2023/10/22 08:06:39;;;;;;;2.58;1.77;;;16.40;69.20;18.10;100258.00;;;;5036351;28;20692;-77
2023/10/22 08:09:07;;;;;;;3.35;1.98;;;16.40;68.90;18.00;100256.00;;;;5035803;28;20207;-75
2023/10/22 08:11:34;;;;;;;4.10;2.17;;;16.40;68.70;18.00;100261.00;;;;5038708;28;20203;-76
2023/10/22 08:14:01;;;;;;;2.85;1.55;;;16.40;68.50;18.00;100261.00;;;;5036438;28;20232;-75
2023/10/22 08:16:29;;;;;;;3.35;1.75;;;16.30;68.40;17.90;100263.00;;;;5033108;28;20201;-76
2023/10/22 08:18:56;;;;;;;3.30;1.98;;;16.30;68.50;17.90;100269.00;;;;5032657;28;20224;-76
2023/10/22 08:21:23;;;;;;;4.82;1.80;;;16.30;68.50;17.90;100265.00;;;;5042456;28;21704;-76
2023/10/22 08:23:50;;;;;;;4.28;2.00;;;16.30;68.60;17.90;100269.00;;;;5034346;28;20249;-76
2023/10/22 08:26:17;;;;;;;2.00;1.80;;;16.30;68.70;18.00;100263.00;;;;5040000;28;21079;-76
2023/10/22 08:28:44;;;;;;;2.08;1.30;;;16.30;68.70;18.00;100267.00;;;;5043411;28;20563;-76
2023/10/22 08:31:11;;;;;;;2.08;1.60;;;16.30;68.80;18.00;100268.00;;;;5044429;28;20670;-76
2023/10/22 08:33:39;;;;;;;2.72;1.95;;;16.30;69.00;18.10;100274.00;;;;5047936;28;20223;-76
2023/10/22 08:36:08;;;;;;;1.75;1.33;;;16.40;69.40;18.10;100278.00;;;;5044768;28;20290;-76
2023/10/22 08:38:36;;;;;;;2.70;1.40;;;16.40;69.50;18.20;100279.00;;;;5047722;28;20208;-76
2023/10/22 08:41:06;;;;;;;2.55;1.55;;;16.40;69.60;18.20;100285.00;;;;5048941;28;20196;-76
2023/10/22 08:43:33;;;;;;;2.72;1.40;;;16.50;69.50;18.30;100285.00;;;;5040454;28;20275;-76
2023/10/22 08:46:02;;;;;;;3.35;1.48;;;16.60;69.50;18.30;100293.00;;;;5044997;28;20223;-77
2023/10/22 08:48:33;;;;;;;4.03;1.85;;;16.60;69.40;18.30;100292.00;;;;5045666;28;20250;-76
2023/10/22 08:51:03;;;;;;;2.28;1.30;;;16.60;69.10;18.40;100300.00;;;;5030485;28;20196;-76
2023/10/22 08:53:30;;;;;;;4.55;1.13;;;16.70;69.10;18.40;100308.00;;;;5037609;28;20206;-76
2023/10/22 08:55:56;;;;;;;2.45;1.45;;;16.80;69.10;18.40;100302.00;;;;5038691;28;20226;-76
2023/10/22 08:58:23;;;;;;;1.60;1.17;;;16.70;69.00;18.50;100309.00;;;;5037955;28;20259;-76
2023/10/22 09:00:50;;;;;;;2.15;1.23;;;16.80;69.00;18.50;100311.00;;;;5044307;28;20192;-76
2023/10/22 09:03:20;;;;;;;2.33;1.25;;;16.80;69.10;18.60;100319.00;;;;5039557;28;20195;-76
2023/10/22 09:05:49;;;;;;;1.70;1.45;;;16.90;69.20;18.70;100314.00;;;;5048049;28;20231;-76
2023/10/22 09:08:17;;;;;;;3.38;1.40;;;17.00;69.40;18.70;100317.00;;;;5035761;28;20200;-75
2023/10/22 09:10:44;;;;;;;3.53;1.60;;;17.00;69.30;18.70;100331.00;;;;5033146;28;20210;-76
2023/10/22 09:13:15;;;;;;;3.25;1.20;;;17.00;69.10;18.80;100320.00;;;;5033292;28;20200;-77
2023/10/22 09:15:46;;;;;;;1.50;1.15;;;17.10;69.10;18.80;100332.00;;;;5037703;28;20568;-76
2023/10/22 09:18:13;;;;;;;2.85;1.42;;;17.10;69.30;18.90;100331.00;;;;5046440;28;20231;-76
2023/10/22 09:20:41;;;;;;;5.18;1.45;;;17.20;69.40;19.00;100345.00;;;;5045389;28;20207;-76
2023/10/22 09:23:21;;;;;;;6.28;1.20;;;17.30;69.30;19.00;100345.00;;;;5034091;28;20207;-75
2023/10/22 09:25:52;;;;;;;2.80;1.20;;;17.30;68.90;19.10;100356.00;;;;5041076;28;20199;-76
2023/10/22 09:28:21;;;;;;;2.60;1.25;;;17.40;68.80;19.10;100369.00;;;;5042836;28;20230;-76
2023/10/22 09:30:54;;;;;;;1.90;1.35;;;17.40;68.50;19.10;100370.00;;;;5043210;28;20196;-76
2023/10/22 09:33:32;;;;;;;5.55;1.77;;;17.50;68.30;19.00;100376.00;;;;5041642;28;20687;-76
2023/10/22 09:36:03;;;;;;;2.75;1.25;;;17.50;68.10;19.10;100376.00;;;;5041727;28;20650;-76
2023/10/22 09:38:46;;;;;;;2.20;1.50;;;17.50;68.00;19.00;100379.00;;;;5044519;28;20290;-76
2023/10/22 09:41:19;;;;;;;3.63;1.40;;;17.50;67.90;19.10;100384.00;;;;5045824;28;20199;-76
2023/10/22 09:43:46;;;;;;;3.45;1.30;;;17.50;68.10;19.20;100384.00;;;;5042503;28;20566;-76
2023/10/22 09:46:14;;;;;;;2.03;1.27;;;17.50;68.10;19.20;100388.00;;;;5038028;28;20219;-76
2023/10/22 09:48:44;;;;;;;2.17;1.40;;;17.50;68.00;19.20;100392.00;;;;5037374;28;20246;-76
2023/10/22 09:51:15;;;;;;;2.17;1.15;;;17.50;67.90;19.20;100394.00;;;;5044942;28;20203;-76
2023/10/22 09:53:50;;;;;;;2.00;1.30;;;17.50;67.90;19.20;100396.00;;;;5042557;28;20246;-76
2023/10/22 09:56:21;;;;;;;2.60;1.25;;;17.50;67.90;19.20;100392.00;;;;5038696;28;20311;-76
2023/10/22 09:58:50;;;;;;;3.53;1.38;;;17.50;67.90;19.20;100396.00;;;;5035437;28;20575;-77
2023/10/22 10:01:17;;;;;;;1.65;1.27;;;17.60;68.00;19.20;100396.00;;;;5033833;28;20199;-76
2023/10/22 10:03:46;;;;;;;2.28;1.05;;;17.60;68.00;19.20;100391.00;;;;5033536;28;20196;-77
2023/10/22 10:06:14;;;;;;;3.35;1.40;;;17.60;67.90;19.20;100392.00;;;;5038615;28;20234;-76
2023/10/22 10:08:43;;;;;;;2.50;0.90;;;17.60;67.80;19.20;100393.00;;;;5034453;28;20196;-76
2023/10/22 10:11:13;;;;;;;1.15;1.00;;;17.60;67.90;19.20;100398.00;;;;5039129;28;20190;-76
2023/10/22 10:13:41;;;;;;;1.40;0.88;;;17.60;67.90;19.30;100394.00;;;;5035261;28;20204;-77
2023/10/22 10:16:09;;;;;;;3.88;1.20;;;17.60;67.80;19.30;100396.00;;;;5040081;28;20314;-76
2023/10/22 10:19:02;;;;;;;3.35;1.20;;;17.60;67.90;19.10;100400.00;;;;5035013;28;20615;-76
2023/10/22 10:21:47;;;;;;;3.55;1.20;;;17.60;67.70;19.20;100416.00;;;;5032261;28;20189;-77
2023/10/22 10:24:22;;;;;;;0.93;0.70;;;17.60;67.60;19.20;100420.00;;;;5033090;28;20295;-77
2023/10/22 10:26:52;;;;;;;3.70;1.10;;;17.70;67.80;19.30;100416.00;;;;5036103;28;20579;-77
2023/10/22 10:29:22;;;;;;;2.30;1.10;;;17.60;67.90;19.30;100414.00;;;;5036909;28;20224;-77
2023/10/22 10:31:51;;;;;;;1.83;0.70;;;17.70;67.90;19.40;100417.00;;;;5032696;28;20258;-77
2023/10/22 10:34:26;;;;;;;1.95;0.80;;;17.70;67.90;19.30;100427.00;;;;5043034;28;20277;-76
2023/10/22 10:36:54;;;;;;;0.93;0.60;;;17.80;67.90;19.40;100427.00;;;;5042023;28;20196;-76
2023/10/22 10:39:41;;;;;;;1.50;0.73;;;17.80;67.90;19.40;100434.00;;;;5033082;28;20200;-76
2023/10/22 10:42:08;;;;;;;1.42;0.60;;;17.80;67.80;19.50;100439.00;;;;5038168;28;20199;-77
2023/10/22 10:45:07;;;;;;;2.42;0.80;;;17.80;68.10;19.50;100440.00;;;;5040396;28;20245;-76
2023/10/22 10:47:36;;;;;;;3.05;1.17;;;17.90;68.10;19.60;100445.00;;;;5034116;28;20200;-76
2023/10/22 10:50:06;;;;;;;2.75;0.90;;;18.00;68.10;19.70;100442.00;;;;5032865;28;20207;-76
2023/10/22 10:53:02;;;;;;;2.67;0.90;;;18.00;68.00;19.70;100442.00;;;;5031903;28;20212;-76
2023/10/22 10:55:36;;;;;;;1.58;1.10;;;18.20;67.70;19.90;100449.00;;;;5040826;28;20219;-76